Date,TemperatureHighF,TemperatureAvgF,TemperatureLowF,DewpointHighF,DewpointAvgF,DewpointLowF,HumidityHigh,HumidityAvg,HumidityLow,PressureMaxIn,PressureMinIn,WindSpeedMaxMPH,WindSpeedAvgMPH,GustSpeedMaxMPH,PrecipitationSumIn
2014-1-1,60,41,32,47,36,30,95,84,58,30.18,30.08,1,0,2,0.00
2014-1-2,67,51,36,45,40,34,91,68,39,30.13,30.01,1,0,2,0.00
2014-1-3,63,46,37,45,39,34,92,78,46,30.03,29.92,1,0,3,0.00
2014-1-4,67,47,36,48,38,30,95,74,35,30.04,29.94,2,0,2,0.00
2014-1-5,65,45,31,41,33,26,84,67,36,30.17,30.04,3,0,3,0.00
2014-1-6,57,41,35,43,36,32,90,83,57,30.24,30.12,0,0,0,0.00
2014-1-7,63,48,40,48,42,37,92,80,54,30.17,30.08,2,0,2,0.00
2014-1-8,58,51,44,52,47,42,94,87,79,30.19,30.11,2,0,4,0.00
2014-1-9,44,44,44,42,42,42,90,90,90,30.18,30.18,0,0,0,0.00
2014-1-11,58,51,43,52,47,41,92,85,77,30.26,30.11,0,0,0,0.00
2014-1-12,60,46,38,46,40,36,96,81,54,30.35,30.23,0,0,0,0.00
2014-1-13,69,48,38,43,38,34,92,70,36,30.42,30.30,0,0,0,0.00
2014-1-14,70,50,36,40,34,31,89,59,25,30.42,30.27,0,0,0,0.00
2014-1-15,72,50,36,42,36,31,86,62,31,30.30,30.15,0,0,0,0.00
2014-1-16,74,50,35,43,37,31,88,65,28,30.19,30.07,0,0,0,0.00
2014-1-17,70,48,34,45,37,30,90,70,34,30.15,30.06,0,0,0,0.00
2014-1-18,73,47,34,45,37,30,92,71,28,30.13,30.01,0,0,0,0.00
2014-1-19,69,46,33,45,36,30,91,71,30,30.10,30.00,0,0,0,0.00
2014-1-20,71,47,34,43,36,31,92,69,29,30.19,30.07,0,0,0,0.00
2014-1-21,69,48,33,46,36,30,92,69,30,30.23,30.11,0,0,0,0.00
2014-1-22,75,49,33,42,36,29,89,66,19,30.10,29.89,0,0,0,0.00
2014-1-23,68,47,36,43,35,33,90,69,31,29.97,29.82,0,0,0,0.00
2014-1-24,62,52,37,48,42,34,92,69,46,30.22,29.97,0,0,0,0.00
2014-1-25,44,44,44,37,37,37,76,76,76,30.09,30.08,0,0,0,0.00
2014-1-26,70,49,41,47,43,35,90,80,34,30.08,29.97,0,0,0,0.00
2014-1-27,61,51,44,51,47,41,95,86,65,30.17,30.04,0,0,0,0.00
2014-1-28,66,56,46,58,52,44,95,87,70,30.22,30.14,0,0,0,0.00
2014-1-29,67,60,56,60,56,52,95,88,76,30.17,29.95,0,0,0,0.00
2014-1-30,66,54,51,50,49,43,92,83,53,29.95,29.82,0,0,0,0.02
2014-1-31,62,50,41,46,43,36,90,78,41,30.05,29.88,0,0,0,0.00
2014-2-1,60,47,34,40,35,31,91,66,39,30.13,30.04,0,0,0,0.00
2014-2-2,53,46,40,47,42,35,93,85,74,30.04,29.81,0,0,0,0.15
2014-2-3,57,46,37,45,40,34,95,82,54,30.05,29.94,0,0,0,0.01
2014-2-4,56,44,35,43,38,32,93,80,59,30.14,30.04,0,0,0,0.00
2014-2-5,58,46,34,45,40,32,94,80,59,30.18,30.02,0,0,0,0.02
2014-2-6,55,49,45,50,46,44,95,90,79,30.02,29.85,0,0,0,0.50
2014-2-7,55,51,46,51,48,44,96,91,82,30.06,29.95,0,0,0,0.06
2014-2-8,55,54,54,50,50,50,84,84,84,30.04,30.02,0,0,0,0.00
2014-2-10,61,54,48,54,50,46,93,86,75,30.23,30.18,0,0,0,0.02
2014-2-11,61,52,46,53,49,44,96,87,69,30.22,30.12,0,0,0,0.02
2014-2-12,61,52,45,52,48,43,95,86,68,30.26,30.14,0,0,0,0.00
2014-2-13,70,56,47,59,52,45,95,87,67,30.19,30.05,0,0,0,0.00
2014-2-14,63,56,48,57,53,46,96,88,71,30.13,30.02,1,0,1,0.01
2014-2-15,62,52,45,55,49,44,96,89,77,30.02,29.93,0,0,0,0.01
2014-2-16,65,54,44,53,44,35,94,70,36,30.17,30.00,0,0,0,0.00
2014-2-17,60,46,41,47,41,38,89,83,60,30.14,30.08,0,0,0,0.05
2014-2-18,64,51,40,51,44,38,95,80,51,30.16,30.05,0,0,0,0.00
2014-2-19,66,54,45,51,46,41,94,76,48,30.17,30.06,0,0,0,0.03
2014-2-20,69,52,40,45,40,38,94,69,36,30.17,30.08,0,0,0,0.00
2014-2-23,66,55,46,53,47,43,89,77,56,29.95,29.90,0,0,0,0.00
2014-2-24,74,55,40,53,46,38,97,74,36,29.96,29.85,0,0,0,0.00
2014-2-25,66,55,48,53,48,45,94,80,63,29.95,29.85,0,0,0,0.00
2014-2-26,60,55,52,55,52,48,96,88,75,29.92,29.61,0,0,0,0.29
2014-2-27,69,58,51,54,50,46,95,75,51,29.86,29.45,0,0,0,0.04
2014-2-28,62,56,52,54,52,46,96,88,58,29.46,29.33,0,0,0,0.03
2014-3-1,67,61,56,55,53,50,87,75,59,29.75,29.56,0,0,0,0.22
2014-3-2,63,56,49,56,51,46,91,82,70,30.13,29.77,0,0,0,0.00
2014-3-3,53,53,53,51,51,51,94,93,93,30.00,29.96,0,0,0,0.11
2014-3-4,67,60,53,58,55,51,94,83,70,30.07,30.00,0,0,0,0.00
2014-3-5,72,61,52,60,55,50,95,81,56,30.06,29.95,0,0,0,0.01
2014-3-6,67,59,49,58,53,46,95,82,62,30.16,30.01,0,0,0,0.04
2014-3-7,71,55,44,50,46,42,95,76,42,30.14,30.05,0,0,0,0.00
2014-3-8,71,50,43,54,46,41,96,86,49,30.15,30.07,0,0,1,0.00
2014-3-9,59,58,57,50,49,48,74,72,69,30.08,30.07,0,0,0,0.05
2014-3-10,71,59,51,54,50,46,91,72,47,30.20,30.06,1,0,2,0.01
2014-3-11,72,58,45,46,40,34,87,55,27,30.16,29.97,1,0,1,0.00
2014-3-12,76,61,47,43,38,31,67,44,24,30.06,29.94,1,0,1,0.00
2014-3-13,79,58,45,50,42,31,81,59,19,30.03,29.92,0,0,1,0.00
2014-3-14,70,53,43,54,46,40,93,79,47,30.18,30.03,0,0,0,0.00
2014-3-15,52,48,47,48,45,44,94,90,87,30.25,30.18,0,0,0,0.00
2014-3-16,74,60,49,54,45,37,80,59,36,30.21,30.13,0,0,0,0.00
2014-3-17,71,58,47,51,46,43,89,68,42,30.21,29.93,0,0,0,0.00
2014-3-18,73,67,49,38,35,32,66,32,25,29.94,29.84,0,0,0,0.00
2014-3-19,77,58,40,44,40,36,87,56,27,30.04,29.93,0,0,0,0.00
2014-3-20,76,62,50,54,46,42,76,59,32,30.01,29.89,0,0,0,0.00
2014-3-21,70,55,42,52,46,39,93,75,51,29.96,29.89,0,0,0,0.00
2014-3-22,70,55,44,50,46,40,91,74,44,30.05,29.95,0,0,0,0.00
2014-3-26,62,57,52,56,50,47,94,78,63,29.94,29.80,0,0,0,0.25
2014-3-27,68,57,48,51,48,46,93,74,51,30.10,29.94,0,0,0,0.01
2014-3-28,71,61,49,54,50,46,90,68,51,30.16,30.05,0,0,0,0.00
2014-3-29,63,54,50,58,51,47,94,89,73,30.11,29.97,0,0,0,0.34
2014-3-30,64,53,44,51,46,42,96,78,53,30.09,30.01,0,0,0,0.01
2014-3-31,57,48,42,48,44,41,94,86,65,30.05,29.81,0,0,0,0.45
2014-4-1,61,48,42,51,44,41,97,87,54,29.91,29.80,0,0,0,0.46
2014-4-2,43,43,42,42,41,41,94,94,94,29.85,29.84,0,0,0,0.00
2014-4-5,60,50,46,51,47,44,96,91,61,30.12,30.09,0,0,0,0.24
2014-4-6,66,62,56,54,53,52,85,74,66,30.09,30.05,0,0,0,0.00
2014-4-7,70,62,50,53,51,47,90,69,54,30.06,30.01,0,0,0,0.00
2014-4-8,59,56,52,54,52,49,94,86,81,30.06,30.01,0,0,0,0.00
2014-4-9,73,60,52,58,53,49,92,78,57,30.05,29.94,0,0,0,0.00
2014-4-10,80,62,49,58,52,45,92,72,32,30.00,29.84,0,0,0,0.00
2014-4-11,60,55,53,54,51,50,90,87,78,29.90,29.86,0,0,0,0.00
2014-4-12,70,62,52,54,50,47,84,67,54,29.91,29.82,0,0,0,0.00
2014-4-13,78,59,53,56,50,47,82,72,45,30.00,29.91,0,0,0,0.00
2014-4-14,71,61,55,56,52,49,83,72,57,30.04,29.99,0,0,0,0.00
2014-4-15,71,60,51,56,51,46,89,73,52,30.03,29.85,0,0,0,0.00
2014-4-16,82,63,48,56,50,45,92,67,35,29.89,29.76,0,0,0,0.00
2014-4-17,75,61,50,57,51,46,92,71,49,29.84,29.75,0,0,0,0.00
2014-4-18,71,59,48,57,48,36,90,68,41,29.92,29.83,0,0,0,0.00
2014-4-19,72,58,46,54,48,42,89,72,48,30.09,29.91,0,0,0,0.00
2014-4-20,53,53,53,49,49,49,88,88,87,30.08,30.08,0,0,0,0.00
2014-4-21,70,59,46,55,47,36,89,68,30,30.04,29.94,0,0,0,0.00
2014-4-22,68,57,50,50,42,36,81,60,32,30.10,29.93,0,0,0,0.00
2014-4-23,70,57,44,49,43,38,82,63,39,30.11,30.04,0,0,0,0.00
2014-4-24,69,58,48,55,50,44,92,75,54,30.08,29.94,0,0,0,0.00
2014-4-25,58,54,50,54,50,44,93,85,75,29.94,29.77,0,0,0,0.27
2014-4-26,65,54,45,45,43,39,87,68,42,30.07,29.82,0,0,0,0.00
2014-4-27,71,58,50,54,47,44,81,69,48,30.10,30.00,0,0,0,0.01
2014-4-28,75,59,44,55,45,36,92,62,33,30.18,30.10,0,0,0,0.00
2014-4-29,87,63,47,53,45,41,86,58,25,30.16,30.02,0,0,0,0.00
2014-4-30,93,72,53,57,50,43,86,51,25,30.04,29.94,0,0,0,0.00
2014-5-1,91,70,54,58,51,48,81,54,24,30.04,29.98,0,0,0,0.00
2014-5-2,81,64,51,58,51,45,82,64,31,30.05,29.96,0,0,0,0.00
2014-5-3,72,61,54,55,51,48,87,71,46,30.02,29.95,0,0,0,0.00
2014-5-4,72,60,50,54,50,46,89,72,49,30.02,29.96,0,0,0,0.00
2014-5-5,71,59,52,52,48,45,86,69,46,30.02,29.92,0,0,0,0.00
2014-5-6,74,59,49,52,46,43,81,63,35,29.93,29.84,0,0,0,0.00
2014-5-7,71,56,48,54,47,43,85,72,48,29.99,29.86,0,0,0,0.00
2014-5-8,70,61,50,57,52,45,84,72,55,30.05,29.98,0,0,0,0.00
2014-5-9,72,62,54,56,50,44,90,68,41,30.13,30.05,0,0,0,0.00
2014-5-10,70,58,49,48,45,43,83,62,42,30.12,30.00,0,0,0,0.00
2014-5-11,57,56,55,44,41,39,66,57,50,30.03,30.02,0,0,0,0.00
2014-5-12,90,67,47,54,45,38,89,51,18,30.06,29.96,0,0,0,0.00
2014-5-13,94,69,51,52,46,42,77,50,19,30.08,30.00,0,0,0,0.00
2014-5-14,94,72,54,54,49,42,76,50,21,30.09,29.97,0,0,0,0.00
2014-5-15,90,72,54,54,45,33,75,43,17,30.05,29.98,0,0,0,0.00
2014-5-16,79,70,60,59,52,44,70,55,37,30.05,29.94,0,0,0,0.00
2014-5-17,76,63,52,54,49,44,89,64,39,29.98,29.92,0,0,0,0.00
2014-5-18,74,63,56,55,49,44,82,63,43,29.96,29.91,0,0,0,0.00
2014-5-19,56,56,56,46,46,46,70,70,70,29.93,29.93,0,0,0,0.00
2014-5-22,69,63,58,58,55,53,85,76,63,30.00,29.88,0,0,0,0.00
2014-5-23,74,62,56,59,55,52,88,77,56,30.00,29.89,0,0,0,0.02
2014-5-24,75,64,55,60,54,48,92,73,52,29.97,29.88,0,0,0,0.00
2014-5-25,85,66,52,60,52,44,91,64,32,29.94,29.87,0,0,0,0.00
2014-5-26,86,67,53,62,51,37,88,61,34,29.98,29.92,0,0,0,0.00
2014-5-27,75,62,51,54,46,37,85,60,31,30.01,29.93,0,0,0,0.00
2014-5-28,80,63,47,46,43,39,78,50,25,30.03,29.90,0,0,0,0.00
2014-5-29,86,66,50,56,46,32,88,54,17,29.91,29.83,0,0,0,0.00
2014-5-30,73,60,50,56,50,46,90,70,47,29.94,29.87,0,0,0,0.00
2014-6-1,81,64,54,60,54,50,89,72,44,29.88,29.74,0,0,0,0.00
2014-6-2,75,62,55,56,52,49,86,70,49,29.87,29.79,0,0,0,0.00
2014-6-3,74,63,55,57,53,49,84,71,51,29.90,29.82,0,0,0,0.00
2014-6-4,80,65,55,62,56,51,89,73,50,29.86,29.77,0,0,0,0.00
2014-6-5,77,65,55,61,56,52,88,74,54,29.82,29.75,0,0,0,0.00
2014-6-6,76,64,55,60,55,52,91,75,53,29.80,29.74,0,0,0,0.00
2014-6-7,78,65,58,60,56,52,87,73,53,29.81,29.73,0,0,0,0.00
2014-6-8,95,73,55,69,59,52,93,66,29,29.78,29.65,0,0,0,0.00
2014-6-9,86,71,59,66,59,55,90,69,44,29.71,29.63,0,0,0,0.00
2014-6-10,77,66,60,63,58,56,89,77,59,29.78,29.68,0,0,0,0.00
2014-6-11,79,66,56,61,55,51,88,70,52,29.86,29.76,0,0,0,0.00
2014-6-12,75,64,56,57,52,47,79,66,43,29.95,29.86,0,0,0,0.00
2014-6-13,82,65,50,58,50,45,89,61,33,29.95,29.87,0,0,0,0.00
2014-6-14,89,68,54,60,51,40,88,59,28,29.90,29.79,0,0,0,0.00
2014-6-15,80,64,54,55,51,48,81,65,42,29.83,29.75,0,0,0,0.00
2014-6-16,73,61,54,52,49,44,82,65,44,29.89,29.81,0,0,0,0.00
2014-6-17,82,64,49,54,46,42,84,56,28,29.92,29.85,0,0,0,0.00
2014-6-18,91,69,50,58,49,40,82,55,21,29.91,29.85,0,0,0,0.00
2014-6-19,78,66,53,59,54,49,91,68,46,29.95,29.89,0,0,0,0.00
2014-6-20,89,68,54,62,52,42,91,61,24,29.95,29.88,0,0,0,0.00
2014-6-21,72,63,54,57,53,46,87,70,55,29.91,29.84,0,0,0,0.00
2014-6-22,58,57,56,51,51,50,81,80,80,29.88,29.87,0,0,0,0.00
2014-6-24,61,56,54,54,51,49,92,85,80,29.95,29.92,0,0,0,0.00
2014-6-30,88,71,58,69,59,54,88,67,41,29.79,29.73,0,0,0,0.02
2014-7-1,79,68,61,63,59,55,87,74,52,29.81,29.74,0,0,0,0.00
2014-7-2,79,66,61,62,56,53,86,71,49,29.87,29.80,0,0,0,0.00
2014-7-3,79,66,56,61,57,52,88,73,50,29.90,29.84,0,0,0,0.00
2014-7-4,77,64,54,61,56,51,92,76,52,29.97,29.85,0,0,0,0.00
2014-7-5,83,67,58,62,57,53,90,73,47,30.03,29.95,0,0,0,0.00
2014-7-6,80,66,54,62,56,50,92,73,44,30.02,29.89,0,0,0,0.00
2014-7-7,80,67,58,63,58,54,87,74,52,29.90,29.78,0,0,0,0.00
2014-7-8,78,68,62,62,58,56,84,71,55,29.88,29.82,0,0,0,0.00
2014-7-9,80,68,62,63,59,56,85,73,53,29.90,29.80,0,0,0,0.00
2014-7-10,82,68,57,62,58,53,90,72,50,29.90,29.80,0,0,0,0.00
2014-7-11,78,67,58,61,57,53,87,71,52,30.04,29.89,0,0,0,0.00
2014-7-12,74,65,58,60,56,53,83,73,59,30.05,29.98,0,0,0,0.00
2014-7-13,78,66,58,62,58,53,87,75,56,30.01,29.84,0,0,0,0.00
2014-7-14,83,68,58,66,60,55,93,77,51,29.89,29.80,0,0,0,0.00
2014-7-15,82,72,62,68,63,58,88,74,60,29.95,29.87,0,0,0,0.00
2014-7-17,77,67,59,63,58,55,89,74,58,29.96,29.88,0,0,0,0.00
2014-7-18,76,67,61,63,59,56,83,75,62,29.97,29.88,0,0,0,0.00
2014-7-19,79,69,62,64,60,57,86,75,58,29.92,29.86,0,0,0,0.00
2014-7-20,67,64,64,62,60,59,87,85,83,29.92,29.88,0,0,0,0.00
2014-7-21,82,72,64,65,59,56,74,64,52,30.00,29.95,0,0,0,0.00
2014-7-22,82,69,61,64,59,56,82,70,52,30.06,29.99,0,0,0,0.00
2014-7-23,80,69,58,66,59,54,90,72,54,30.10,29.99,0,0,0,0.00
2014-7-24,90,73,59,67,60,55,91,67,37,30.01,29.77,0,0,0,0.00
2014-7-25,98,74,58,68,59,50,91,64,20,29.84,29.76,0,0,0,0.00
2014-7-26,87,71,59,67,61,55,91,72,47,29.91,29.83,0,0,0,0.00
2014-7-27,87,71,64,66,61,59,86,72,48,29.95,29.86,0,0,0,0.00
2014-7-28,81,69,62,65,60,58,89,75,55,30.01,29.94,0,0,0,0.00
2014-7-29,82,70,61,66,61,58,90,74,49,30.01,29.92,0,0,0,0.00
2014-7-30,82,69,62,65,60,58,88,76,53,29.97,29.89,0,0,0,0.00
2014-7-31,81,68,60,65,60,56,89,76,55,29.95,29.84,0,0,0,0.00
2014-8-1,82,68,58,65,60,55,94,79,54,29.88,29.82,0,0,0,0.00
2014-8-2,74,66,61,63,59,56,90,80,63,29.92,29.85,0,0,0,0.00
2014-8-3,76,66,62,62,59,57,86,77,60,29.93,29.86,0,0,0,0.00
2014-8-4,77,67,62,62,59,56,84,75,59,29.96,29.89,0,0,0,0.00
2014-8-5,80,68,61,66,60,56,88,76,57,30.03,29.95,0,0,0,0.00
2014-8-6,85,71,63,68,63,58,92,77,53,29.98,29.89,0,0,0,0.01
2014-8-7,76,67,62,63,60,56,89,78,63,29.93,29.85,0,0,0,0.00
2014-8-8,79,67,57,63,58,53,92,75,48,29.90,29.81,0,0,0,0.00
2014-8-9,71,61,56,60,56,52,92,83,66,29.93,29.86,0,0,0,0.00
2014-8-10,73,67,61,62,59,56,84,76,66,29.91,29.88,0,0,0,0.00
2014-8-11,79,68,61,63,60,56,87,74,55,29.92,29.84,0,0,0,0.00
2014-8-12,78,66,56,62,58,53,90,75,54,29.94,29.86,0,0,0,0.00
2014-8-13,79,68,59,63,59,54,88,73,52,29.96,29.87,0,0,0,0.00
2014-8-14,79,67,59,64,60,56,91,78,57,29.93,29.84,0,0,0,0.00
2014-8-15,80,68,59,64,60,56,93,78,56,29.96,29.88,0,0,0,0.00
2014-8-16,81,68,62,64,60,57,88,75,55,30.00,29.91,0,0,0,0.00
2014-8-17,77,66,60,63,59,55,89,78,60,30.00,29.87,0,0,0,0.00
2014-8-18,75,66,60,63,59,56,88,78,64,29.88,29.76,0,0,0,0.00
2014-8-21,81,68,59,64,59,54,89,74,56,29.91,29.85,0,0,0,0.00
2014-8-22,81,68,60,64,60,55,92,75,52,29.89,29.83,0,0,0,0.00
2014-8-23,78,68,61,62,58,55,87,72,52,29.92,29.80,0,0,0,0.00
2014-8-24,77,68,61,62,59,55,86,74,58,29.87,29.76,0,0,0,0.00
2014-8-25,77,65,58,61,57,54,88,75,54,29.91,29.80,0,0,0,0.00
2014-8-26,78,66,54,62,57,51,92,74,56,29.97,29.88,0,0,0,0.00
2014-8-27,82,68,57,65,60,54,94,77,48,30.02,29.93,0,0,0,0.00
2014-8-28,63,61,59,58,57,56,89,87,84,30.02,30.01,0,0,0,0.00
2014-8-29,82,71,63,66,62,59,87,74,55,29.90,29.84,0,0,0,0.00
2014-8-30,85,70,58,66,59,53,94,71,38,29.88,29.81,0,0,0,0.00
2014-8-31,80,68,57,64,59,54,94,74,46,29.90,29.78,0,0,0,0.00
2014-9-1,87,70,56,66,60,54,94,71,35,29.81,29.70,0,0,0,0.00
2014-9-2,77,67,57,64,60,54,94,79,62,29.81,29.72,0,0,0,0.00
2014-9-3,80,68,62,63,59,56,87,73,53,29.76,29.65,0,0,0,0.00
2014-9-4,80,68,61,63,60,58,90,76,54,29.76,29.67,0,0,0,0.00
2014-9-5,76,67,60,62,58,55,86,75,61,29.88,29.75,0,0,0,0.00
2014-9-6,75,65,57,62,57,53,90,76,60,29.93,29.83,0,0,0,0.00
2014-9-7,74,66,57,60,56,52,86,72,60,29.87,29.76,0,0,0,0.00
2014-9-8,70,62,54,57,54,50,90,76,61,29.92,29.81,0,0,0,0.00
2014-9-9,75,62,51,61,55,48,92,78,59,29.96,29.86,1,0,2,0.00
2014-9-10,88,73,57,64,59,53,90,65,39,29.88,29.77,0,0,0,0.00
2014-9-11,87,68,54,66,58,52,94,75,38,29.87,29.76,0,0,0,0.00
2014-9-12,84,67,56,66,59,53,94,76,48,29.86,29.74,0,0,0,0.00
2014-9-13,80,66,57,64,59,54,93,79,53,29.82,29.73,2,0,2,0.00
2014-9-14,78,64,58,64,59,55,93,83,60,29.82,29.78,0,0,0,0.00
2014-9-15,78,66,56,64,57,52,94,74,50,29.90,29.80,0,0,0,0.00
2014-9-16,84,66,52,62,56,49,92,71,39,29.90,29.75,0,0,0,0.00
2014-9-17,82,70,60,65,60,56,89,71,44,29.78,29.68,0,0,0,0.00
2014-9-18,70,70,70,62,62,62,76,75,75,29.73,29.73,0,0,0,0.00
2014-9-19,75,63,59,64,59,56,93,87,69,29.88,29.84,0,0,0,0.00
2014-9-21,76,66,62,64,60,57,87,79,63,29.98,29.89,0,0,0,0.00
2014-9-22,79,68,61,64,59,56,85,75,56,30.01,29.90,0,0,0,0.00
2014-9-23,79,66,55,65,58,52,94,78,59,29.97,29.86,0,0,0,0.00
2014-9-24,81,69,58,67,62,55,93,78,59,29.93,29.82,0,0,0,0.00
2014-9-25,73,64,58,63,59,55,95,83,63,29.98,29.85,0,0,0,0.41
2014-9-26,74,62,53,60,55,51,95,79,57,29.96,29.88,0,0,0,0.00
2014-9-27,79,64,56,62,56,53,92,77,52,29.90,29.79,0,0,0,0.00
2014-9-28,76,63,53,62,56,51,93,78,57,29.92,29.78,0,0,0,0.00
2014-9-29,73,63,55,62,57,52,93,82,67,29.99,29.92,0,0,0,0.00
2014-9-30,75,63,53,63,56,50,95,80,59,29.95,29.80,0,0,0,0.00
2014-10-1,85,66,52,56,49,40,95,60,23,29.90,29.80,0,0,0,0.00
2014-10-2,90,65,49,51,47,44,87,59,23,29.99,29.89,0,0,0,0.00
2014-10-3,93,71,53,59,51,44,87,56,23,30.05,29.93,1,0,1,0.00
2014-10-4,93,70,52,59,51,44,82,57,20,30.00,29.86,0,0,0,0.00
2014-10-5,89,68,52,65,54,46,85,64,26,29.92,29.81,0,0,1,0.00
2014-10-6,86,66,52,66,56,48,95,73,33,29.89,29.78,0,0,0,0.00
2014-10-7,77,60,52,63,56,50,94,85,62,29.91,29.83,0,0,1,0.00
2014-10-8,78,66,58,61,57,54,86,73,54,29.87,29.80,0,0,0,0.00
2014-10-9,72,62,53,62,56,50,94,83,69,29.96,29.87,0,0,0,0.00
2014-10-10,70,61,54,60,56,51,94,82,67,30.04,29.95,0,0,0,0.00
2014-10-11,77,61,50,61,55,48,95,81,48,30.03,29.92,0,0,0,0.00
2014-10-12,89,66,52,61,50,40,96,63,20,29.97,29.84,0,0,0,0.00
2014-10-13,84,64,49,60,50,41,89,65,24,29.92,29.85,0,0,0,0.00
2014-10-14,76,64,56,59,56,53,95,77,54,29.91,29.77,0,0,0,0.00
2014-10-15,74,64,56,59,56,52,87,74,52,29.98,29.83,0,0,0,0.00
2014-10-16,73,60,50,56,50,46,92,72,43,30.00,29.89,0,0,0,0.00
2014-10-17,76,61,48,56,50,44,92,71,47,29.94,29.86,0,0,0,0.00
2014-10-18,79,64,53,60,55,50,93,75,46,29.95,29.82,0,0,0,0.00
2014-10-19,76,63,54,63,57,52,95,83,63,29.89,29.80,0,0,0,0.00
2014-10-20,67,60,53,58,54,50,92,81,63,30.03,29.87,0,0,0,0.00
2014-10-21,73,58,47,55,49,45,95,74,41,30.08,29.97,0,0,0,0.00
2014-10-22,74,59,48,57,51,45,93,75,47,30.05,29.96,0,0,0,0.00
2014-10-23,75,62,54,61,55,51,92,79,52,30.04,29.92,0,0,0,0.00
2014-10-24,56,55,54,53,52,52,91,90,89,29.94,29.93,0,0,0,0.00
2014-10-29,82,66,56,57,54,51,84,66,36,29.95,29.93,0,0,0,0.15
2014-10-30,76,61,52,60,54,49,92,81,54,29.93,29.82,0,0,0,0.00
2014-10-31,62,58,53,59,55,51,94,91,82,29.88,29.68,0,0,0,0.22
2014-11-1,64,54,48,55,50,46,96,88,64,30.00,29.70,0,0,0,0.07
2014-11-2,67,52,43,52,45,41,96,80,49,30.14,30.00,0,0,0,0.00
2014-11-3,70,53,41,53,45,39,94,77,39,30.23,30.13,0,0,0,0.00
2014-11-4,73,55,43,55,47,40,95,77,42,30.29,30.17,0,0,0,0.00
2014-11-5,75,56,45,54,48,43,94,79,43,30.20,30.02,0,0,0,0.00
2014-11-6,74,58,48,58,52,45,94,81,47,30.19,30.09,0,0,0,0.00
2014-11-7,71,57,48,61,53,46,96,88,68,30.20,30.06,0,0,0,0.00
2014-11-8,52,52,52,50,50,50,92,92,92,30.07,30.07,0,0,0,0.00
2014-11-9,75,60,47,60,54,45,96,82,56,29.95,29.78,0,0,0,0.00
2014-11-10,69,59,50,59,54,48,96,86,68,29.82,29.74,0,0,0,0.00
2014-11-11,70,58,49,54,51,47,95,77,53,29.94,29.81,0,0,0,0.00
2014-11-12,66,58,56,51,50,48,82,75,56,29.99,29.93,0,0,0,0.00
2014-11-13,66,60,54,60,56,52,94,87,75,30.04,29.89,0,0,0,0.14
2014-11-14,65,55,47,57,51,45,96,86,68,30.07,30.02,0,0,0,0.00
2014-11-15,67,52,45,56,48,43,96,87,65,30.14,30.05,0,0,0,0.00
2014-11-16,63,52,44,50,40,30,96,69,29,30.22,30.14,0,0,0,0.00
2014-11-17,66,50,44,44,40,36,89,70,38,30.21,30.06,0,0,0,0.00
2014-11-18,65,52,42,50,44,39,92,76,48,30.10,30.00,0,0,0,0.00
2014-11-19,70,59,51,57,48,37,91,69,43,30.01,29.96,0,0,0,0.00
2014-11-20,58,54,52,56,52,50,96,95,93,30.08,30.02,0,0,0,0.01
2014-11-21,63,58,52,55,53,51,97,85,69,30.10,30.02,0,0,0,0.17
2014-11-22,68,58,49,59,53,46,92,85,73,30.21,30.02,0,0,0,0.00
2014-11-23,65,52,43,50,45,40,96,80,46,30.30,30.20,0,0,0,0.00
2014-11-24,69,50,39,47,41,37,99,75,35,30.37,30.28,0,0,0,0.00
2014-11-25,66,53,39,49,44,37,94,74,50,30.42,30.29,0,0,0,0.00
2014-11-26,69,52,40,53,45,38,97,80,42,30.29,30.15,0,0,0,0.00
2014-11-27,67,51,41,54,46,39,96,83,54,30.16,30.01,0,0,0,0.00
2014-11-28,64,51,40,52,47,38,99,86,56,30.03,29.81,0,0,0,0.00
2014-11-29,66,58,54,58,54,48,96,87,73,29.82,29.71,0,0,0,0.19
2014-11-30,60,56,52,58,54,50,96,94,89,29.98,29.69,2,0,2,0.55
2014-12-1,68,56,50,60,54,49,97,92,73,30.08,29.89,2,0,2,0.00
2014-12-2,59,56,52,58,55,51,97,96,95,29.91,29.65,1,0,2,0.49
2014-12-3,62,59,56,61,58,55,97,96,95,29.85,29.66,0,0,0,1.09
2014-12-4,68,60,55,60,57,54,98,91,71,29.92,29.84,1,0,1,0.01
2014-12-5,65,58,53,60,56,51,98,92,80,30.04,29.93,1,0,1,0.12
2014-12-6,70,60,55,61,57,53,97,90,69,30.18,30.04,1,0,1,0.22
2014-12-9,64,57,51,59,55,50,97,92,83,30.16,30.03,0,0,0,0.00
2014-12-10,66,60,54,58,55,52,96,87,73,30.03,29.70,0,0,1,0.00
2014-12-11,64,56,51,57,53,50,97,90,70,29.71,29.49,3,0,3,3.19
2014-12-12,54,50,46,54,50,45,97,97,96,30.05,29.61,0,0,0,0.16
2014-12-13,56,48,41,51,46,40,98,93,79,30.19,30.04,0,0,0,0.01
2014-12-14,62,48,43,50,45,42,97,89,63,30.11,29.96,0,0,0,0.00
2014-12-15,54,52,50,53,50,48,96,93,88,29.89,29.79,0,0,0,0.79
2014-12-16,49,49,49,48,48,48,95,95,95,29.89,29.89,0,0,0,0.00
2014-12-17,56,53,50,54,51,48,97,93,86,30.05,29.98,0,0,0,0.18
2014-12-18,62,54,50,54,50,48,94,86,72,30.15,30.01,0,0,0,0.00
2014-12-19,56,55,51,52,51,49,94,86,82,30.13,30.07,0,0,2,0.00
2014-12-23,48,48,47,46,46,45,93,93,92,30.09,30.08,0,0,0,0.19
2014-12-24,61,52,46,56,49,41,97,90,78,30.09,29.92,0,0,1,0.07
2014-12-25,57,47,38,43,39,35,93,75,49,30.12,30.01,1,0,1,0.00
2014-12-26,60,46,36,38,35,31,92,71,35,30.23,30.06,1,0,1,0.00
2014-12-27,55,41,32,39,34,29,96,78,45,30.34,30.23,0,0,0,0.00
2014-12-28,60,44,36,45,39,33,94,83,55,30.32,30.20,0,0,0,0.00
2014-12-29,57,46,38,48,41,36,96,84,66,30.20,30.07,1,0,1,0.00
2014-12-30,54,44,34,38,30,20,94,61,32,30.22,30.07,2,0,3,0.00
2014-12-31,57,43,32,29,24,17,77,50,22,30.23,30.03,1,0,1,0.00
2015-1-1,55,39,29,32,28,25,85,66,36,30.13,30.03,0,0,0,0.00
2015-1-2,53,38,29,36,31,26,92,77,48,30.19,30.07,0,0,0,0.00